sensor_id;sensor_type;location;lat;lon;timestamp;temperature;humidity
10051;DHT22;5065;46.942;7.432;2022-09-09T00:00:29;18.20;99.90
10051;DHT22;5065;46.942;7.432;2022-09-09T00:03:04;18.10;99.90
10051;DHT22;5065;46.942;7.432;2022-09-09T00:05:40;18.20;99.90
10051;DHT22;5065;46.942;7.432;2022-09-09T00:08:15;18.20;99.90
10051;DHT22;5065;46.942;7.432;2022-09-09T00:10:47;18.10;99.90
10051;DHT22;5065;46.942;7.432;2022-09-09T00:13:22;18.10;99.90
10051;DHT22;5065;46.942;7.432;2022-09-09T00:15:59;18.10;99.90
10051;DHT22;5065;46.942;7.432;2022-09-09T00:18:31;18.00;99.90
10051;DHT22;5065;46.942;7.432;2022-09-09T00:21:05;18.00;99.90
10051;DHT22;5065;46.942;7.432;2022-09-09T00:23:35;18.00;99.90
10051;DHT22;5065;46.942;7.432;2022-09-09T00:26:08;18.00;99.90
10051;DHT22;5065;46.942;7.432;2022-09-09T00:28:41;17.90;99.90
10051;DHT22;5065;46.942;7.432;2022-09-09T00:31:12;17.90;99.90
10051;DHT22;5065;46.942;7.432;2022-09-09T00:33:40;17.90;99.90
10051;DHT22;5065;46.942;7.432;2022-09-09T00:36:14;17.90;99.90
10051;DHT22;5065;46.942;7.432;2022-09-09T00:38:45;17.90;99.90
10051;DHT22;5065;46.942;7.432;2022-09-09T00:41:19;17.90;99.90
10051;DHT22;5065;46.942;7.432;2022-09-09T00:43:56;17.90;99.90
10051;DHT22;5065;46.942;7.432;2022-09-09T00:46:41;17.90;99.90
10051;DHT22;5065;46.942;7.432;2022-09-09T00:49:19;17.90;99.90
10051;DHT22;5065;46.942;7.432;2022-09-09T00:51:56;17.90;99.90
10051;DHT22;5065;46.942;7.432;2022-09-09T00:54:37;17.90;99.90
10051;DHT22;5065;46.942;7.432;2022-09-09T00:57:14;17.90;99.90
10051;DHT22;5065;46.942;7.432;2022-09-09T00:59:48;18.00;99.90
10051;DHT22;5065;46.942;7.432;2022-09-09T01:02:27;18.00;99.90
10051;DHT22;5065;46.942;7.432;2022-09-09T01:05:10;18.00;99.90
10051;DHT22;5065;46.942;7.432;2022-09-09T01:07:44;18.00;99.90
10051;DHT22;5065;46.942;7.432;2022-09-09T01:10:21;18.10;99.90
10051;DHT22;5065;46.942;7.432;2022-09-09T01:12:52;18.10;99.90
10051;DHT22;5065;46.942;7.432;2022-09-09T01:15:25;18.10;99.90
10051;DHT22;5065;46.942;7.432;2022-09-09T01:17:59;18.10;99.90
10051;DHT22;5065;46.942;7.432;2022-09-09T01:20:31;18.20;99.90
10051;DHT22;5065;46.942;7.432;2022-09-09T01:26:22;18.20;99.90
10051;DHT22;5065;46.942;7.432;2022-09-09T01:28:52;18.20;99.90
10051;DHT22;5065;46.942;7.432;2022-09-09T01:31:22;18.20;99.90
10051;DHT22;5065;46.942;7.432;2022-09-09T01:33:50;18.20;99.90
10051;DHT22;5065;46.942;7.432;2022-09-09T01:36:26;18.30;99.90
10051;DHT22;5065;46.942;7.432;2022-09-09T01:38:57;18.30;99.90
10051;DHT22;5065;46.942;7.432;2022-09-09T01:41:26;18.30;99.90
10051;DHT22;5065;46.942;7.432;2022-09-09T01:43:54;18.30;99.90
10051;DHT22;5065;46.942;7.432;2022-09-09T01:46:22;18.30;99.90
10051;DHT22;5065;46.942;7.432;2022-09-09T01:48:50;18.30;99.90
10051;DHT22;5065;46.942;7.432;2022-09-09T01:51:18;18.30;99.90
10051;DHT22;5065;46.942;7.432;2022-09-09T01:53:46;18.30;99.90
10051;DHT22;5065;46.942;7.432;2022-09-09T01:56:28;18.20;99.90
10051;DHT22;5065;46.942;7.432;2022-09-09T01:59:11;18.20;99.90
10051;DHT22;5065;46.942;7.432;2022-09-09T02:01:53;18.10;99.90
10051;DHT22;5065;46.942;7.432;2022-09-09T02:04:37;18.10;99.90
10051;DHT22;5065;46.942;7.432;2022-09-09T02:07:13;18.10;99.90
10051;DHT22;5065;46.942;7.432;2022-09-09T02:09:43;18.10;99.90
10051;DHT22;5065;46.942;7.432;2022-09-09T02:12:16;18.10;99.90
10051;DHT22;5065;46.942;7.432;2022-09-09T02:14:50;18.10;99.90
10051;DHT22;5065;46.942;7.432;2022-09-09T02:17:25;18.10;99.90
10051;DHT22;5065;46.942;7.432;2022-09-09T02:19:56;18.10;99.90
10051;DHT22;5065;46.942;7.432;2022-09-09T02:22:27;18.10;99.90
10051;DHT22;5065;46.942;7.432;2022-09-09T02:24:58;18.00;99.90
10051;DHT22;5065;46.942;7.432;2022-09-09T02:27:27;18.00;99.90
10051;DHT22;5065;46.942;7.432;2022-09-09T02:29:56;18.00;99.90
10051;DHT22;5065;46.942;7.432;2022-09-09T02:32:25;18.00;99.90
10051;DHT22;5065;46.942;7.432;2022-09-09T02:34:55;18.00;99.90
10051;DHT22;5065;46.942;7.432;2022-09-09T02:37:29;18.00;99.90
10051;DHT22;5065;46.942;7.432;2022-09-09T02:39:57;17.90;99.90
10051;DHT22;5065;46.942;7.432;2022-09-09T02:42:24;17.90;99.90
10051;DHT22;5065;46.942;7.432;2022-09-09T02:44:53;17.90;99.90
10051;DHT22;5065;46.942;7.432;2022-09-09T02:47:27;17.90;99.90
10051;DHT22;5065;46.942;7.432;2022-09-09T02:50:04;17.90;99.90
10051;DHT22;5065;46.942;7.432;2022-09-09T02:52:38;17.90;99.90
10051;DHT22;5065;46.942;7.432;2022-09-09T02:55:14;17.90;99.90
10051;DHT22;5065;46.942;7.432;2022-09-09T02:57:46;17.90;99.90
10051;DHT22;5065;46.942;7.432;2022-09-09T03:00:15;17.90;99.90
10051;DHT22;5065;46.942;7.432;2022-09-09T03:02:42;17.90;99.90
10051;DHT22;5065;46.942;7.432;2022-09-09T03:05:11;17.90;99.90
10051;DHT22;5065;46.942;7.432;2022-09-09T03:07:38;17.90;99.90
10051;DHT22;5065;46.942;7.432;2022-09-09T03:10:08;17.90;99.90
10051;DHT22;5065;46.942;7.432;2022-09-09T03:12:36;17.90;99.90
10051;DHT22;5065;46.942;7.432;2022-09-09T03:15:05;17.90;99.90
10051;DHT22;5065;46.942;7.432;2022-09-09T03:17:34;17.90;99.90
10051;DHT22;5065;46.942;7.432;2022-09-09T03:20:01;17.90;99.90
10051;DHT22;5065;46.942;7.432;2022-09-09T03:22:29;17.90;99.90
10051;DHT22;5065;46.942;7.432;2022-09-09T03:24:56;17.90;99.90
10051;DHT22;5065;46.942;7.432;2022-09-09T03:27:23;17.90;99.90
10051;DHT22;5065;46.942;7.432;2022-09-09T03:29:50;17.80;99.90
10051;DHT22;5065;46.942;7.432;2022-09-09T03:32:19;17.90;99.90
10051;DHT22;5065;46.942;7.432;2022-09-09T03:34:49;17.90;99.90
10051;DHT22;5065;46.942;7.432;2022-09-09T03:37:17;17.90;99.90
10051;DHT22;5065;46.942;7.432;2022-09-09T03:39:44;17.80;99.90
10051;DHT22;5065;46.942;7.432;2022-09-09T03:42:12;17.80;99.90
10051;DHT22;5065;46.942;7.432;2022-09-09T03:44:44;17.90;99.90
10051;DHT22;5065;46.942;7.432;2022-09-09T03:47:12;17.90;99.90
10051;DHT22;5065;46.942;7.432;2022-09-09T03:49:40;17.80;99.90
10051;DHT22;5065;46.942;7.432;2022-09-09T03:52:09;17.80;99.90
10051;DHT22;5065;46.942;7.432;2022-09-09T03:54:37;17.80;99.90
10051;DHT22;5065;46.942;7.432;2022-09-09T03:57:04;17.80;99.90
10051;DHT22;5065;46.942;7.432;2022-09-09T03:59:32;17.80;99.90
10051;DHT22;5065;46.942;7.432;2022-09-09T04:02:00;17.80;99.90
10051;DHT22;5065;46.942;7.432;2022-09-09T04:04:28;17.80;99.90
10051;DHT22;5065;46.942;7.432;2022-09-09T04:06:55;17.80;99.90
10051;DHT22;5065;46.942;7.432;2022-09-09T04:09:23;17.80;99.90
10051;DHT22;5065;46.942;7.432;2022-09-09T04:11:50;17.80;99.90
10051;DHT22;5065;46.942;7.432;2022-09-09T04:14:18;17.70;99.90
10051;DHT22;5065;46.942;7.432;2022-09-09T04:16:45;17.70;99.90
10051;DHT22;5065;46.942;7.432;2022-09-09T04:19:13;17.70;99.90
10051;DHT22;5065;46.942;7.432;2022-09-09T04:21:40;17.70;99.90
10051;DHT22;5065;46.942;7.432;2022-09-09T04:24:08;17.70;99.90
10051;DHT22;5065;46.942;7.432;2022-09-09T04:26:37;17.70;99.90
10051;DHT22;5065;46.942;7.432;2022-09-09T04:29:04;17.70;99.90
10051;DHT22;5065;46.942;7.432;2022-09-09T04:31:32;17.60;99.90
10051;DHT22;5065;46.942;7.432;2022-09-09T04:34:00;17.60;99.90
10051;DHT22;5065;46.942;7.432;2022-09-09T04:36:31;17.60;99.90
10051;DHT22;5065;46.942;7.432;2022-09-09T04:38:58;17.50;99.90
10051;DHT22;5065;46.942;7.432;2022-09-09T04:41:27;17.50;99.90
10051;DHT22;5065;46.942;7.432;2022-09-09T04:43:56;17.50;99.90
10051;DHT22;5065;46.942;7.432;2022-09-09T04:46:23;17.40;99.90
10051;DHT22;5065;46.942;7.432;2022-09-09T04:48:51;17.40;99.90
10051;DHT22;5065;46.942;7.432;2022-09-09T04:51:19;17.40;99.90
10051;DHT22;5065;46.942;7.432;2022-09-09T04:53:46;17.40;99.90
10051;DHT22;5065;46.942;7.432;2022-09-09T04:56:16;17.30;99.90
10051;DHT22;5065;46.942;7.432;2022-09-09T04:58:44;17.30;99.90
10051;DHT22;5065;46.942;7.432;2022-09-09T05:01:14;17.30;99.90
10051;DHT22;5065;46.942;7.432;2022-09-09T05:03:42;17.30;99.90
10051;DHT22;5065;46.942;7.432;2022-09-09T05:06:12;17.20;99.90
10051;DHT22;5065;46.942;7.432;2022-09-09T05:08:40;17.20;99.90
10051;DHT22;5065;46.942;7.432;2022-09-09T05:11:14;17.30;99.90
10051;DHT22;5065;46.942;7.432;2022-09-09T05:13:42;17.30;99.90
10051;DHT22;5065;46.942;7.432;2022-09-09T05:16:11;17.30;99.90
10051;DHT22;5065;46.942;7.432;2022-09-09T05:18:39;17.20;99.90
10051;DHT22;5065;46.942;7.432;2022-09-09T05:21:08;17.20;99.90
10051;DHT22;5065;46.942;7.432;2022-09-09T05:23:36;17.20;99.90
10051;DHT22;5065;46.942;7.432;2022-09-09T05:26:05;17.10;99.90
10051;DHT22;5065;46.942;7.432;2022-09-09T05:28:34;17.10;99.90
10051;DHT22;5065;46.942;7.432;2022-09-09T05:31:02;17.10;99.90
10051;DHT22;5065;46.942;7.432;2022-09-09T05:33:32;17.10;99.90
10051;DHT22;5065;46.942;7.432;2022-09-09T05:36:01;17.10;99.90
10051;DHT22;5065;46.942;7.432;2022-09-09T05:38:30;17.20;99.90
10051;DHT22;5065;46.942;7.432;2022-09-09T05:40:58;17.20;99.90
10051;DHT22;5065;46.942;7.432;2022-09-09T05:43:26;17.30;99.90
10051;DHT22;5065;46.942;7.432;2022-09-09T05:46:01;17.30;99.90
10051;DHT22;5065;46.942;7.432;2022-09-09T05:48:32;17.20;99.90
10051;DHT22;5065;46.942;7.432;2022-09-09T05:51:00;17.30;99.90
10051;DHT22;5065;46.942;7.432;2022-09-09T05:53:29;17.30;99.90
10051;DHT22;5065;46.942;7.432;2022-09-09T05:56:01;17.40;99.90
10051;DHT22;5065;46.942;7.432;2022-09-09T05:58:30;17.50;99.90
10051;DHT22;5065;46.942;7.432;2022-09-09T06:01:05;17.50;99.90
10051;DHT22;5065;46.942;7.432;2022-09-09T06:03:35;17.50;99.90
10051;DHT22;5065;46.942;7.432;2022-09-09T06:06:04;17.60;99.90
10051;DHT22;5065;46.942;7.432;2022-09-09T06:08:32;17.70;99.90
10051;DHT22;5065;46.942;7.432;2022-09-09T06:11:03;17.70;99.90
10051;DHT22;5065;46.942;7.432;2022-09-09T06:13:31;17.90;99.90
10051;DHT22;5065;46.942;7.432;2022-09-09T06:15:58;18.00;99.90
10051;DHT22;5065;46.942;7.432;2022-09-09T06:18:26;18.00;99.90
10051;DHT22;5065;46.942;7.432;2022-09-09T06:20:58;18.10;99.90
10051;DHT22;5065;46.942;7.432;2022-09-09T06:23:27;18.20;99.90
10051;DHT22;5065;46.942;7.432;2022-09-09T06:26:02;18.30;99.90
10051;DHT22;5065;46.942;7.432;2022-09-09T06:28:31;18.50;99.90
10051;DHT22;5065;46.942;7.432;2022-09-09T06:30:59;19.00;99.90
10051;DHT22;5065;46.942;7.432;2022-09-09T06:33:30;19.40;99.90
10051;DHT22;5065;46.942;7.432;2022-09-09T06:35:58;19.60;99.90
10051;DHT22;5065;46.942;7.432;2022-09-09T06:38:26;19.70;99.90
10051;DHT22;5065;46.942;7.432;2022-09-09T06:40:53;19.70;99.90
10051;DHT22;5065;46.942;7.432;2022-09-09T06:43:21;19.60;99.90
10051;DHT22;5065;46.942;7.432;2022-09-09T06:45:56;19.50;99.90
10051;DHT22;5065;46.942;7.432;2022-09-09T06:48:24;19.40;99.90
10051;DHT22;5065;46.942;7.432;2022-09-09T06:51:03;19.50;99.90
10051;DHT22;5065;46.942;7.432;2022-09-09T06:53:30;19.80;99.90
10051;DHT22;5065;46.942;7.432;2022-09-09T06:56:03;20.30;99.90
10051;DHT22;5065;46.942;7.432;2022-09-09T06:58:44;20.70;99.90
10051;DHT22;5065;46.942;7.432;2022-09-09T07:01:12;21.20;99.90
10051;DHT22;5065;46.942;7.432;2022-09-09T07:03:40;21.60;99.90
10051;DHT22;5065;46.942;7.432;2022-09-09T07:06:14;21.90;99.90
10051;DHT22;5065;46.942;7.432;2022-09-09T07:08:42;22.00;99.90
10051;DHT22;5065;46.942;7.432;2022-09-09T07:11:10;22.30;99.90
10051;DHT22;5065;46.942;7.432;2022-09-09T07:13:37;22.50;99.90
10051;DHT22;5065;46.942;7.432;2022-09-09T07:16:06;22.80;99.90
10051;DHT22;5065;46.942;7.432;2022-09-09T07:18:34;23.00;99.90
10051;DHT22;5065;46.942;7.432;2022-09-09T07:21:02;23.40;99.90
10051;DHT22;5065;46.942;7.432;2022-09-09T07:23:31;23.60;99.90
10051;DHT22;5065;46.942;7.432;2022-09-09T07:26:01;23.70;99.90
10051;DHT22;5065;46.942;7.432;2022-09-09T07:28:28;23.70;99.90
10051;DHT22;5065;46.942;7.432;2022-09-09T07:30:58;23.60;99.90
10051;DHT22;5065;46.942;7.432;2022-09-09T07:33:27;23.50;99.90
10051;DHT22;5065;46.942;7.432;2022-09-09T07:36:02;23.60;99.90
10051;DHT22;5065;46.942;7.432;2022-09-09T07:38:32;24.00;99.90
10051;DHT22;5065;46.942;7.432;2022-09-09T07:41:03;24.30;99.90
10051;DHT22;5065;46.942;7.432;2022-09-09T07:43:30;24.70;99.90
10051;DHT22;5065;46.942;7.432;2022-09-09T07:45:59;25.00;99.90
10051;DHT22;5065;46.942;7.432;2022-09-09T07:48:27;25.40;99.90
10051;DHT22;5065;46.942;7.432;2022-09-09T07:51:04;25.50;99.90
10051;DHT22;5065;46.942;7.432;2022-09-09T07:53:34;25.20;99.90
10051;DHT22;5065;46.942;7.432;2022-09-09T07:56:05;24.90;99.90
10051;DHT22;5065;46.942;7.432;2022-09-09T07:58:33;24.50;99.90
10051;DHT22;5065;46.942;7.432;2022-09-09T08:01:00;24.10;99.90
10051;DHT22;5065;46.942;7.432;2022-09-09T08:03:27;23.80;99.90
10051;DHT22;5065;46.942;7.432;2022-09-09T08:06:01;23.50;99.90
10051;DHT22;5065;46.942;7.432;2022-09-09T08:08:28;23.10;99.90
10051;DHT22;5065;46.942;7.432;2022-09-09T08:11:04;22.90;99.90
10051;DHT22;5065;46.942;7.432;2022-09-09T08:13:33;22.60;99.90
10051;DHT22;5065;46.942;7.432;2022-09-09T08:16:08;22.30;99.90
10051;DHT22;5065;46.942;7.432;2022-09-09T08:18:36;22.00;99.90
10051;DHT22;5065;46.942;7.432;2022-09-09T08:21:08;21.70;99.90
10051;DHT22;5065;46.942;7.432;2022-09-09T08:23:39;21.40;99.90
10051;DHT22;5065;46.942;7.432;2022-09-09T08:26:11;21.10;99.90
10051;DHT22;5065;46.942;7.432;2022-09-09T08:28:40;20.90;99.90
10051;DHT22;5065;46.942;7.432;2022-09-09T08:31:10;20.70;99.90
10051;DHT22;5065;46.942;7.432;2022-09-09T08:33:39;20.60;99.90
10051;DHT22;5065;46.942;7.432;2022-09-09T08:36:09;20.70;99.90
10051;DHT22;5065;46.942;7.432;2022-09-09T08:38:37;21.20;99.90
10051;DHT22;5065;46.942;7.432;2022-09-09T08:41:20;21.80;99.90
10051;DHT22;5065;46.942;7.432;2022-09-09T08:43:52;22.40;99.90
10051;DHT22;5065;46.942;7.432;2022-09-09T08:46:29;23.00;99.90
10051;DHT22;5065;46.942;7.432;2022-09-09T08:49:02;23.20;99.90
10051;DHT22;5065;46.942;7.432;2022-09-09T08:51:33;23.00;99.90
10051;DHT22;5065;46.942;7.432;2022-09-09T08:54:02;22.80;99.90
10051;DHT22;5065;46.942;7.432;2022-09-09T08:56:32;22.60;99.90
10051;DHT22;5065;46.942;7.432;2022-09-09T08:59:00;22.50;99.90
10051;DHT22;5065;46.942;7.432;2022-09-09T09:01:40;22.40;99.90
10051;DHT22;5065;46.942;7.432;2022-09-09T09:04:20;22.20;99.90
10051;DHT22;5065;46.942;7.432;2022-09-09T09:06:55;22.10;99.90
10051;DHT22;5065;46.942;7.432;2022-09-09T09:09:29;22.10;99.90
10051;DHT22;5065;46.942;7.432;2022-09-09T09:12:01;22.40;99.90
10051;DHT22;5065;46.942;7.432;2022-09-09T09:14:30;23.00;99.90
10051;DHT22;5065;46.942;7.432;2022-09-09T09:17:02;23.50;99.90
10051;DHT22;5065;46.942;7.432;2022-09-09T09:19:32;23.80;99.90
10051;DHT22;5065;46.942;7.432;2022-09-09T09:22:06;24.10;99.90
10051;DHT22;5065;46.942;7.432;2022-09-09T09:24:41;24.30;99.90
10051;DHT22;5065;46.942;7.432;2022-09-09T09:27:15;24.20;99.90
10051;DHT22;5065;46.942;7.432;2022-09-09T09:29:44;24.10;99.90
10051;DHT22;5065;46.942;7.432;2022-09-09T09:32:16;24.00;99.90
10051;DHT22;5065;46.942;7.432;2022-09-09T09:34:49;24.00;99.90
10051;DHT22;5065;46.942;7.432;2022-09-09T09:37:20;23.90;99.90
10051;DHT22;5065;46.942;7.432;2022-09-09T09:39:50;23.90;99.90
10051;DHT22;5065;46.942;7.432;2022-09-09T09:42:19;24.00;99.90
10051;DHT22;5065;46.942;7.432;2022-09-09T09:44:46;24.30;99.90
10051;DHT22;5065;46.942;7.432;2022-09-09T09:47:15;24.70;99.90
10051;DHT22;5065;46.942;7.432;2022-09-09T09:49:51;24.90;99.90
10051;DHT22;5065;46.942;7.432;2022-09-09T09:52:22;25.00;99.90
10051;DHT22;5065;46.942;7.432;2022-09-09T09:54:51;25.00;99.90
10051;DHT22;5065;46.942;7.432;2022-09-09T09:57:25;24.80;99.90
10051;DHT22;5065;46.942;7.432;2022-09-09T10:00:01;24.80;99.90
10051;DHT22;5065;46.942;7.432;2022-09-09T10:02:37;24.70;99.90
10051;DHT22;5065;46.942;7.432;2022-09-09T10:05:08;24.90;99.90
10051;DHT22;5065;46.942;7.432;2022-09-09T10:07:38;25.00;99.90
10051;DHT22;5065;46.942;7.432;2022-09-09T10:10:09;25.10;99.90
10051;DHT22;5065;46.942;7.432;2022-09-09T10:12:48;25.00;99.90
10051;DHT22;5065;46.942;7.432;2022-09-09T10:15:32;24.80;99.90
10051;DHT22;5065;46.942;7.432;2022-09-09T10:18:14;24.50;99.90
10051;DHT22;5065;46.942;7.432;2022-09-09T10:20:53;24.20;99.90
10051;DHT22;5065;46.942;7.432;2022-09-09T10:23:27;23.90;99.90
10051;DHT22;5065;46.942;7.432;2022-09-09T10:25:59;23.70;99.90
10051;DHT22;5065;46.942;7.432;2022-09-09T10:28:36;23.60;99.90
10051;DHT22;5065;46.942;7.432;2022-09-09T10:31:10;23.50;99.90
10051;DHT22;5065;46.942;7.432;2022-09-09T10:33:43;23.40;99.90
10051;DHT22;5065;46.942;7.432;2022-09-09T10:36:13;23.20;99.90
10051;DHT22;5065;46.942;7.432;2022-09-09T10:38:44;23.10;99.90
10051;DHT22;5065;46.942;7.432;2022-09-09T10:41:22;23.00;99.90
10051;DHT22;5065;46.942;7.432;2022-09-09T10:44:06;23.10;99.90
10051;DHT22;5065;46.942;7.432;2022-09-09T10:46:43;23.30;99.90
10051;DHT22;5065;46.942;7.432;2022-09-09T10:49:18;23.40;99.90
10051;DHT22;5065;46.942;7.432;2022-09-09T10:51:50;23.50;99.90
10051;DHT22;5065;46.942;7.432;2022-09-09T10:54:23;23.70;99.90
10051;DHT22;5065;46.942;7.432;2022-09-09T10:56:52;23.80;99.90
10051;DHT22;5065;46.942;7.432;2022-09-09T10:59:24;23.90;99.90
10051;DHT22;5065;46.942;7.432;2022-09-09T11:01:53;23.90;99.90
10051;DHT22;5065;46.942;7.432;2022-09-09T11:04:29;23.90;99.90
10051;DHT22;5065;46.942;7.432;2022-09-09T11:07:00;23.80;99.90
10051;DHT22;5065;46.942;7.432;2022-09-09T11:09:30;23.70;99.90
10051;DHT22;5065;46.942;7.432;2022-09-09T11:11:59;23.70;99.90
10051;DHT22;5065;46.942;7.432;2022-09-09T11:14:30;23.60;99.90
10051;DHT22;5065;46.942;7.432;2022-09-09T11:16:59;23.60;99.90
10051;DHT22;5065;46.942;7.432;2022-09-09T11:19:28;23.70;99.90
10051;DHT22;5065;46.942;7.432;2022-09-09T11:22:05;23.70;99.90
10051;DHT22;5065;46.942;7.432;2022-09-09T11:24:37;23.60;99.90
10051;DHT22;5065;46.942;7.432;2022-09-09T11:27:11;23.60;99.90
10051;DHT22;5065;46.942;7.432;2022-09-09T11:30:02;23.50;99.90
10051;DHT22;5065;46.942;7.432;2022-09-09T11:35:34;23.30;99.90
10051;DHT22;5065;46.942;7.432;2022-09-09T11:38:26;23.30;99.90
10051;DHT22;5065;46.942;7.432;2022-09-09T11:40:58;23.30;99.90
10051;DHT22;5065;46.942;7.432;2022-09-09T11:43:32;23.30;99.90
10051;DHT22;5065;46.942;7.432;2022-09-09T11:46:02;23.30;99.90
10051;DHT22;5065;46.942;7.432;2022-09-09T11:48:33;23.40;99.90
10051;DHT22;5065;46.942;7.432;2022-09-09T11:51:05;23.40;99.90
10051;DHT22;5065;46.942;7.432;2022-09-09T11:53:34;23.50;99.90
10051;DHT22;5065;46.942;7.432;2022-09-09T11:56:12;23.50;99.90
10051;DHT22;5065;46.942;7.432;2022-09-09T11:58:43;23.50;99.90
10051;DHT22;5065;46.942;7.432;2022-09-09T12:01:27;23.50;99.90
10051;DHT22;5065;46.942;7.432;2022-09-09T12:04:05;23.50;99.90
10051;DHT22;5065;46.942;7.432;2022-09-09T12:06:43;23.50;99.90
10051;DHT22;5065;46.942;7.432;2022-09-09T12:09:22;23.50;99.90
10051;DHT22;5065;46.942;7.432;2022-09-09T12:11:52;23.50;99.90
10051;DHT22;5065;46.942;7.432;2022-09-09T12:14:37;23.50;99.90
10051;DHT22;5065;46.942;7.432;2022-09-09T12:17:20;23.50;99.90
10051;DHT22;5065;46.942;7.432;2022-09-09T12:19:59;23.50;99.90
10051;DHT22;5065;46.942;7.432;2022-09-09T12:22:38;23.40;99.90
10051;DHT22;5065;46.942;7.432;2022-09-09T12:25:18;23.40;99.90
10051;DHT22;5065;46.942;7.432;2022-09-09T12:27:58;23.30;99.90
10051;DHT22;5065;46.942;7.432;2022-09-09T12:30:30;23.30;99.90
10051;DHT22;5065;46.942;7.432;2022-09-09T12:33:07;23.30;99.90
10051;DHT22;5065;46.942;7.432;2022-09-09T12:35:36;23.30;99.90
10051;DHT22;5065;46.942;7.432;2022-09-09T12:38:05;23.30;99.90
10051;DHT22;5065;46.942;7.432;2022-09-09T12:40:37;23.20;99.90
10051;DHT22;5065;46.942;7.432;2022-09-09T12:43:17;23.20;99.90
10051;DHT22;5065;46.942;7.432;2022-09-09T12:45:45;23.10;99.90
10051;DHT22;5065;46.942;7.432;2022-09-09T12:48:18;23.20;99.90
10051;DHT22;5065;46.942;7.432;2022-09-09T12:50:49;23.10;99.90
10051;DHT22;5065;46.942;7.432;2022-09-09T12:53:22;23.10;99.90
10051;DHT22;5065;46.942;7.432;2022-09-09T12:55:54;23.10;99.90
10051;DHT22;5065;46.942;7.432;2022-09-09T12:58:23;23.10;99.90
10051;DHT22;5065;46.942;7.432;2022-09-09T13:00:52;23.20;99.90
10051;DHT22;5065;46.942;7.432;2022-09-09T13:03:24;23.20;99.90
10051;DHT22;5065;46.942;7.432;2022-09-09T13:05:52;23.20;99.90
10051;DHT22;5065;46.942;7.432;2022-09-09T13:08:20;23.20;99.90
10051;DHT22;5065;46.942;7.432;2022-09-09T13:10:50;23.20;99.90
10051;DHT22;5065;46.942;7.432;2022-09-09T13:13:22;23.20;99.90
10051;DHT22;5065;46.942;7.432;2022-09-09T13:15:52;23.10;99.90
10051;DHT22;5065;46.942;7.432;2022-09-09T13:18:23;23.10;99.90
10051;DHT22;5065;46.942;7.432;2022-09-09T13:20:52;23.10;99.90
10051;DHT22;5065;46.942;7.432;2022-09-09T13:23:20;23.10;99.90
10051;DHT22;5065;46.942;7.432;2022-09-09T13:25:55;23.10;99.90
10051;DHT22;5065;46.942;7.432;2022-09-09T13:28:26;23.10;99.90
10051;DHT22;5065;46.942;7.432;2022-09-09T13:30:58;23.10;99.90
10051;DHT22;5065;46.942;7.432;2022-09-09T13:33:34;23.10;99.90
10051;DHT22;5065;46.942;7.432;2022-09-09T13:36:04;23.10;99.90
10051;DHT22;5065;46.942;7.432;2022-09-09T13:38:35;23.20;99.90
10051;DHT22;5065;46.942;7.432;2022-09-09T13:41:04;23.20;99.90
10051;DHT22;5065;46.942;7.432;2022-09-09T13:43:36;23.30;99.90
10051;DHT22;5065;46.942;7.432;2022-09-09T13:46:06;23.30;99.90
10051;DHT22;5065;46.942;7.432;2022-09-09T13:48:56;23.40;99.90
10051;DHT22;5065;46.942;7.432;2022-09-09T13:51:33;23.40;99.90
10051;DHT22;5065;46.942;7.432;2022-09-09T13:54:04;23.40;99.90
10051;DHT22;5065;46.942;7.432;2022-09-09T13:56:32;23.40;99.90
10051;DHT22;5065;46.942;7.432;2022-09-09T13:59:00;23.40;99.90
10051;DHT22;5065;46.942;7.432;2022-09-09T14:01:27;23.40;99.90
10051;DHT22;5065;46.942;7.432;2022-09-09T14:03:57;23.40;99.90
10051;DHT22;5065;46.942;7.432;2022-09-09T14:06:24;23.40;99.90
10051;DHT22;5065;46.942;7.432;2022-09-09T14:08:53;23.30;99.90
10051;DHT22;5065;46.942;7.432;2022-09-09T14:11:27;23.30;99.60
10051;DHT22;5065;46.942;7.432;2022-09-09T14:14:00;23.30;98.70
10051;DHT22;5065;46.942;7.432;2022-09-09T14:16:27;23.30;99.90
10051;DHT22;5065;46.942;7.432;2022-09-09T14:18:55;23.30;99.60
10051;DHT22;5065;46.942;7.432;2022-09-09T14:21:24;23.30;99.80
10051;DHT22;5065;46.942;7.432;2022-09-09T14:23:52;23.20;99.90
10051;DHT22;5065;46.942;7.432;2022-09-09T14:26:24;23.10;98.30
10051;DHT22;5065;46.942;7.432;2022-09-09T14:28:52;23.10;97.80
10051;DHT22;5065;46.942;7.432;2022-09-09T14:31:19;23.10;98.40
10051;DHT22;5065;46.942;7.432;2022-09-09T14:33:47;23.00;97.80
10051;DHT22;5065;46.942;7.432;2022-09-09T14:36:14;23.00;98.20
10051;DHT22;5065;46.942;7.432;2022-09-09T14:38:43;22.90;99.90
10051;DHT22;5065;46.942;7.432;2022-09-09T14:41:13;23.00;99.00
10051;DHT22;5065;46.942;7.432;2022-09-09T14:43:42;23.00;98.50
10051;DHT22;5065;46.942;7.432;2022-09-09T14:46:12;23.00;98.40
10051;DHT22;5065;46.942;7.432;2022-09-09T14:48:40;23.00;98.80
10051;DHT22;5065;46.942;7.432;2022-09-09T14:51:09;22.90;99.30
10051;DHT22;5065;46.942;7.432;2022-09-09T14:53:39;22.90;99.10
10051;DHT22;5065;46.942;7.432;2022-09-09T14:56:10;22.90;99.40
10051;DHT22;5065;46.942;7.432;2022-09-09T14:58:37;22.90;99.40
10051;DHT22;5065;46.942;7.432;2022-09-09T15:01:06;22.90;99.60
10051;DHT22;5065;46.942;7.432;2022-09-09T15:03:35;22.90;99.90
10051;DHT22;5065;46.942;7.432;2022-09-09T15:06:07;22.90;98.80
10051;DHT22;5065;46.942;7.432;2022-09-09T15:08:35;22.90;99.40
10051;DHT22;5065;46.942;7.432;2022-09-09T15:11:03;22.90;97.90
10051;DHT22;5065;46.942;7.432;2022-09-09T15:13:32;22.80;97.80
10051;DHT22;5065;46.942;7.432;2022-09-09T15:16:04;22.80;98.30
10051;DHT22;5065;46.942;7.432;2022-09-09T15:18:32;22.80;98.40
10051;DHT22;5065;46.942;7.432;2022-09-09T15:21:02;22.80;98.90
10051;DHT22;5065;46.942;7.432;2022-09-09T15:23:31;22.80;99.30
10051;DHT22;5065;46.942;7.432;2022-09-09T15:25:58;22.80;98.40
10051;DHT22;5065;46.942;7.432;2022-09-09T15:28:26;22.80;98.60
10051;DHT22;5065;46.942;7.432;2022-09-09T15:30:55;22.80;98.00
10051;DHT22;5065;46.942;7.432;2022-09-09T15:33:25;22.70;98.30
10051;DHT22;5065;46.942;7.432;2022-09-09T15:35:52;22.70;97.50
10051;DHT22;5065;46.942;7.432;2022-09-09T15:38:20;22.70;97.20
10051;DHT22;5065;46.942;7.432;2022-09-09T15:40:53;22.70;98.50
10051;DHT22;5065;46.942;7.432;2022-09-09T15:43:21;22.60;98.40
10051;DHT22;5065;46.942;7.432;2022-09-09T15:45:56;22.60;98.40
10051;DHT22;5065;46.942;7.432;2022-09-09T15:48:30;22.60;97.50
10051;DHT22;5065;46.942;7.432;2022-09-09T15:51:01;22.50;99.30
10051;DHT22;5065;46.942;7.432;2022-09-09T15:53:31;22.40;99.40
10051;DHT22;5065;46.942;7.432;2022-09-09T15:55:59;22.40;99.90
10051;DHT22;5065;46.942;7.432;2022-09-09T15:58:29;22.30;99.90
10051;DHT22;5065;46.942;7.432;2022-09-09T16:01:03;22.30;99.90
10051;DHT22;5065;46.942;7.432;2022-09-09T16:03:33;22.30;99.90
10051;DHT22;5065;46.942;7.432;2022-09-09T16:06:00;22.20;99.90
10051;DHT22;5065;46.942;7.432;2022-09-09T16:08:32;22.20;99.90
10051;DHT22;5065;46.942;7.432;2022-09-09T16:11:05;22.10;99.90
10051;DHT22;5065;46.942;7.432;2022-09-09T16:13:39;22.10;99.90
10051;DHT22;5065;46.942;7.432;2022-09-09T16:16:12;22.00;99.90